logo
Search for airport 
image banner adimage banner adimage banner ad
image banner ad

MNRT - Rosita

Located in , Nicaragua

ICAO - MNRT, IATA - RFS

Data provided by Airmate  

General information

Coordinates: N13°53'26" W84°24'31"
Elevation is 207 feet MSL.
 
View others Airports in Atlantico Norte

Operational data

Special qualification required
Current time UTC:
Current local time:
Weather at : - ( 0 km )
METAR: PFKW 140022Z AUTO 22013KT 9SM -SN SCT011 OVC040 M03/M06 A3022 RMK AO2 P0000 FZRANO
View NOTAMs / SUP AIP / TFR affecting this airport [VIEW]
Communications frequencies: [VIEW]

Runways:

RWY identifierQFULength (ft)Width (ft)SurfaceLDA (ft)
05311798UNK
23311798UNK

Airport contact information

Address: Nicaragua

Satellite view of MNRT